Rita Ann — WDG4670 — position and weather

sailwx.info

Track history (hours):
 
Tides and Currents Weather Stations Pressure Air Temp Water Temp Dewpoint Dewpoint Depression Visibility Wind Speed Wind Dir Waves Ship Positions

Rita Ann

Owner: D&S Marine Service, LLC, Houma, LA. More information available from US FCC via Universal Licensing System and Coast Guard Vessel Documentation Center.

Last reported at 2018-Jan-24 11:00 UTC. Time now 2018-Jan-24 11:24 UTC.
Position N 29°41' W 094°59'.

Length 22 m; draft 3 m.

Type: . MMSI: 367538940.

Date/timePositionNaut miles runAvg speedWind from/ knotsBaromVisibWave heightAir tempDewpointWater temp
2018-Jan-24 11:00N 29°41' W 094°59'3 5.3
2018-Jan-24 10:30N 29°39' W 094°58'3 5.8
2018-Jan-24 10:01N 29°36' W 094°57'3 5.7
2018-Jan-24 09:30N 29°34' W 094°55'3 5.7
2018-Jan-24 08:59N 29°31' W 094°53'69 3.8
2018-Jan-23 14:52N 30°03' W 093°43'2 4.9
2018-Jan-23 14:30N 30°04' W 093°41'3 5.2
2018-Jan-23 14:00N 30°04' W 093°38'2 4.6
2018-Jan-23 13:30N 30°04' W 093°35'2 4.2
2018-Jan-23 13:00N 30°04' W 093°33'2 4.2
2018-Jan-23 12:30N 30°04' W 093°30'2 4.2
2018-Jan-23 12:00N 30°04' W 093°28'2 4.1
2018-Jan-23 11:30N 30°04' W 093°26'2 4.1
2018-Jan-23 11:00N 30°04' W 093°23'2 3.4
2018-Jan-23 10:30N 30°04' W 093°21'1 2.0
2018-Jan-23 10:00N 30°04' W 093°20'0 0.0
2018-Jan-23 09:30N 30°04' W 093°20'0 0.1
2018-Jan-23 09:00N 30°04' W 093°20'0 0.1
2018-Jan-23 08:30N 30°04' W 093°20'0 0.1
2018-Jan-23 08:00N 30°04' W 093°21'0 0.1
2018-Jan-23 07:31N 30°04' W 093°21'3 5.5
2018-Jan-23 07:00N 30°04' W 093°24'3 6.6
2018-Jan-23 06:30N 30°04' W 093°27'3 6.0
2018-Jan-23 06:01N 30°04' W 093°31'3 6.4
2018-Jan-23 05:31N 30°04' W 093°35'3 6.7
2018-Jan-23 05:01N 30°04' W 093°38'3 0.1
2018-Jan-21 14:56N 30°03' W 093°42'3 5.8
2018-Jan-21 14:29N 30°04' W 093°39'3 5.7
2018-Jan-21 14:00N 30°04' W 093°36'3 5.6
2018-Jan-21 13:29N 30°04' W 093°32'3 5.7
2018-Jan-21 13:00N 30°04' W 093°29'3 5.4
2018-Jan-21 12:31N 30°04' W 093°26'1 2.4
2018-Jan-21 12:00N 30°04' W 093°25'2 3.5
2018-Jan-21 11:30N 30°04' W 093°23'1 2.6
2018-Jan-21 11:01N 30°04' W 093°21'0 0.0
2018-Jan-21 10:30N 30°04' W 093°21'0 0.0
2018-Jan-21 10:00N 30°04' W 093°21'0 0.0
2018-Jan-21 09:31N 30°04' W 093°21'0 0.0
2018-Jan-21 09:01N 30°04' W 093°21'0 0.0
2018-Jan-21 08:31N 30°04' W 093°21'0 0.0
2018-Jan-21 08:01N 30°04' W 093°21'0 0.6
2018-Jan-21 07:30N 30°04' W 093°22'2 4.9
2018-Jan-21 07:00N 30°05' W 093°20'1 3.0
2018-Jan-21 06:30N 30°06' W 093°18'0 0.1
2018-Jan-21 06:00N 30°06' W 093°18'0 0.0
2018-Jan-21 05:31N 30°06' W 093°18'0 0.0
2018-Jan-21 05:00N 30°06' W 093°18'0 0.0
2018-Jan-21 04:31N 30°06' W 093°18'0 0.0
2018-Jan-21 04:01N 30°06' W 093°18'0 0.0
2018-Jan-21 03:31N 30°06' W 093°18'0 0.0
2018-Jan-21 03:01N 30°06' W 093°18'0 0.0
2018-Jan-21 02:31N 30°06' W 093°18'0 0.0
2018-Jan-21 02:01N 30°06' W 093°18'0 0.0
2018-Jan-21 01:31N 30°06' W 093°18'0 0.0
2018-Jan-21 01:00N 30°06' W 093°18'0 0.0
2018-Jan-21 00:31N 30°06' W 093°18'0 0.0
2018-Jan-21 00:01N 30°06' W 093°18'1 1.7
2018-Jan-20 23:31N 30°06' W 093°19'1 2.3
2018-Jan-20 23:01N 30°05' W 093°20'0 0.0
2018-Jan-20 22:31N 30°05' W 093°20'0 0.0
2018-Jan-20 22:01N 30°05' W 093°20'0 0.0
2018-Jan-20 21:30N 30°05' W 093°20'0 0.0
2018-Jan-20 21:00N 30°05' W 093°20'0 0.0
2018-Jan-20 20:31N 30°05' W 093°20'0 0.0
2018-Jan-20 20:00N 30°05' W 093°20'0 0.0
2018-Jan-20 19:31N 30°05' W 093°20'0 0.0
2018-Jan-20 19:00N 30°05' W 093°20'0 0.0
2018-Jan-20 18:30N 30°05' W 093°20'1 2.4
2018-Jan-20 18:00N 30°06' W 093°19'0 0.0
2018-Jan-20 17:30N 30°06' W 093°19'0 0.0
2018-Jan-20 17:00N 30°06' W 093°19'0 0.3
2018-Jan-20 16:31N 30°06' W 093°19'2 3.7
2018-Jan-20 16:01N 30°05' W 093°17'1 2.1
2018-Jan-20 15:30N 30°04' W 093°16'1 2.5
2018-Jan-20 15:00N 30°03' W 093°16'2 4.5
2018-Jan-20 14:30N 30°01' W 093°14'2 3.6
2018-Jan-20 14:00N 29°60' W 093°13'3 5.0
2018-Jan-20 13:30N 29°58' W 093°11'3 4.9
2018-Jan-20 13:00N 29°56' W 093°09'2 3.7
2018-Jan-20 12:29N 29°56' W 093°07'41 4.6
2018-Jan-20 03:37N 29°51' W 092°21'1 4.6
2018-Jan-20 03:30N 29°51' W 092°20'2 4.4
2018-Jan-20 02:58N 29°50' W 092°18'2 4.5
2018-Jan-20 02:30N 29°48' W 092°16'2 4.5
2018-Jan-20 02:00N 29°48' W 092°13'1 2.3
2018-Jan-20 01:31N 29°47' W 092°12'1 1.4
2018-Jan-20 01:00N 29°47' W 092°11'0 0.2
2018-Jan-20 00:30N 29°47' W 092°11'0 0.0
2018-Jan-20 00:01N 29°47' W 092°11'0 0.0
2018-Jan-19 23:30N 29°47' W 092°11'1 1.3
2018-Jan-19 23:00N 29°47' W 092°11'2 4.7
2018-Jan-19 22:30N 29°47' W 092°08'2 3.7
2018-Jan-19 22:00N 29°48' W 092°06'2 4.6
2018-Jan-19 21:30N 29°49' W 092°04'  
Track history (hours):
 
Tides and Currents Weather Stations Pressure Air Temp Water Temp Dewpoint Dewpoint Depression Visibility Wind Speed Wind Dir Waves Ship Positions

Rita Ann

Owner: D&S Marine Service, LLC, Houma, LA. More information available from US FCC via Universal Licensing System and Coast Guard Vessel Documentation Center.

Last reported at 2018-Jan-24 11:00 UTC. Time now 2018-Jan-24 11:24 UTC.
Position N 29°41' W 094°59'.

Length 22 m; draft 3 m.

Type: . MMSI: 367538940.

Date/timePositionNaut miles runAvg speedWind from/ knotsBaromVisibWave heightAir tempDewpointWater temp
2018-Jan-24 11:00N 29°41' W 094°59'3 5.3
2018-Jan-24 10:30N 29°39' W 094°58'3 5.8
2018-Jan-24 10:01N 29°36' W 094°57'3 5.7
2018-Jan-24 09:30N 29°34' W 094°55'3 5.7
2018-Jan-24 08:59N 29°31' W 094°53'69 3.8
2018-Jan-23 14:52N 30°03' W 093°43'2 4.9
2018-Jan-23 14:30N 30°04' W 093°41'3 5.2
2018-Jan-23 14:00N 30°04' W 093°38'2 4.6
2018-Jan-23 13:30N 30°04' W 093°35'2 4.2
2018-Jan-23 13:00N 30°04' W 093°33'2 4.2
2018-Jan-23 12:30N 30°04' W 093°30'2 4.2
2018-Jan-23 12:00N 30°04' W 093°28'2 4.1
2018-Jan-23 11:30N 30°04' W 093°26'2 4.1
2018-Jan-23 11:00N 30°04' W 093°23'2 3.4
2018-Jan-23 10:30N 30°04' W 093°21'1 2.0
2018-Jan-23 10:00N 30°04' W 093°20'0 0.0
2018-Jan-23 09:30N 30°04' W 093°20'0 0.1
2018-Jan-23 09:00N 30°04' W 093°20'0 0.1
2018-Jan-23 08:30N 30°04' W 093°20'0 0.1
2018-Jan-23 08:00N 30°04' W 093°21'0 0.1
2018-Jan-23 07:31N 30°04' W 093°21'3 5.5
2018-Jan-23 07:00N 30°04' W 093°24'3 6.6
2018-Jan-23 06:30N 30°04' W 093°27'3 6.0
2018-Jan-23 06:01N 30°04' W 093°31'3 6.4
2018-Jan-23 05:31N 30°04' W 093°35'3 6.7
2018-Jan-23 05:01N 30°04' W 093°38'3 0.1
2018-Jan-21 14:56N 30°03' W 093°42'3 5.8
2018-Jan-21 14:29N 30°04' W 093°39'3 5.7
2018-Jan-21 14:00N 30°04' W 093°36'3 5.6
2018-Jan-21 13:29N 30°04' W 093°32'3 5.7
2018-Jan-21 13:00N 30°04' W 093°29'3 5.4
2018-Jan-21 12:31N 30°04' W 093°26'1 2.4
2018-Jan-21 12:00N 30°04' W 093°25'2 3.5
2018-Jan-21 11:30N 30°04' W 093°23'1 2.6
2018-Jan-21 11:01N 30°04' W 093°21'0 0.0
2018-Jan-21 10:30N 30°04' W 093°21'0 0.0
2018-Jan-21 10:00N 30°04' W 093°21'0 0.0
2018-Jan-21 09:31N 30°04' W 093°21'0 0.0
2018-Jan-21 09:01N 30°04' W 093°21'0 0.0
2018-Jan-21 08:31N 30°04' W 093°21'0 0.0
2018-Jan-21 08:01N 30°04' W 093°21'0 0.6
2018-Jan-21 07:30N 30°04' W 093°22'2 4.9
2018-Jan-21 07:00N 30°05' W 093°20'1 3.0
2018-Jan-21 06:30N 30°06' W 093°18'0 0.1
2018-Jan-21 06:00N 30°06' W 093°18'0 0.0
2018-Jan-21 05:31N 30°06' W 093°18'0 0.0
2018-Jan-21 05:00N 30°06' W 093°18'0 0.0
2018-Jan-21 04:31N 30°06' W 093°18'0 0.0
2018-Jan-21 04:01N 30°06' W 093°18'0 0.0
2018-Jan-21 03:31N 30°06' W 093°18'0 0.0
2018-Jan-21 03:01N 30°06' W 093°18'0 0.0
2018-Jan-21 02:31N 30°06' W 093°18'0 0.0
2018-Jan-21 02:01N 30°06' W 093°18'0 0.0
2018-Jan-21 01:31N 30°06' W 093°18'0 0.0
2018-Jan-21 01:00N 30°06' W 093°18'0 0.0
2018-Jan-21 00:31N 30°06' W 093°18'0 0.0
2018-Jan-21 00:01N 30°06' W 093°18'1 1.7
2018-Jan-20 23:31N 30°06' W 093°19'1 2.3
2018-Jan-20 23:01N 30°05' W 093°20'0 0.0
2018-Jan-20 22:31N 30°05' W 093°20'0 0.0
2018-Jan-20 22:01N 30°05' W 093°20'0 0.0
2018-Jan-20 21:30N 30°05' W 093°20'0 0.0
2018-Jan-20 21:00N 30°05' W 093°20'0 0.0
2018-Jan-20 20:31N 30°05' W 093°20'0 0.0
2018-Jan-20 20:00N 30°05' W 093°20'0 0.0
2018-Jan-20 19:31N 30°05' W 093°20'0 0.0
2018-Jan-20 19:00N 30°05' W 093°20'0 0.0
2018-Jan-20 18:30N 30°05' W 093°20'1 2.4
2018-Jan-20 18:00N 30°06' W 093°19'0 0.0
2018-Jan-20 17:30N 30°06' W 093°19'0 0.0
2018-Jan-20 17:00N 30°06' W 093°19'0 0.3
2018-Jan-20 16:31N 30°06' W 093°19'2 3.7
2018-Jan-20 16:01N 30°05' W 093°17'1 2.1
2018-Jan-20 15:30N 30°04' W 093°16'1 2.5
2018-Jan-20 15:00N 30°03' W 093°16'2 4.5
2018-Jan-20 14:30N 30°01' W 093°14'2 3.6
2018-Jan-20 14:00N 29°60' W 093°13'3 5.0
2018-Jan-20 13:30N 29°58' W 093°11'3 4.9
2018-Jan-20 13:00N 29°56' W 093°09'2 3.7
2018-Jan-20 12:29N 29°56' W 093°07'41 4.6
2018-Jan-20 03:37N 29°51' W 092°21'1 4.6
2018-Jan-20 03:30N 29°51' W 092°20'2 4.4
2018-Jan-20 02:58N 29°50' W 092°18'2 4.5
2018-Jan-20 02:30N 29°48' W 092°16'2 4.5
2018-Jan-20 02:00N 29°48' W 092°13'1 2.3
2018-Jan-20 01:31N 29°47' W 092°12'1 1.4
2018-Jan-20 01:00N 29°47' W 092°11'0 0.2
2018-Jan-20 00:30N 29°47' W 092°11'0 0.0
2018-Jan-20 00:01N 29°47' W 092°11'0 0.0
2018-Jan-19 23:30N 29°47' W 092°11'1 1.3
2018-Jan-19 23:00N 29°47' W 092°11'2 4.7
2018-Jan-19 22:30N 29°47' W 092°08'2 3.7
2018-Jan-19 22:00N 29°48' W 092°06'2 4.6
2018-Jan-19 21:30N 29°49' W 092°04'  

Dump ship's entire track history